createdAt,value
2023-05-01T00:04:26.899Z,17.27
2023-05-01T00:14:34.731Z,17.27
2023-05-01T00:24:41.333Z,17.29
2023-05-01T00:34:48.254Z,17.32
2023-05-01T00:44:54.965Z,17.33
2023-05-01T00:55:01.631Z,17.33
2023-05-01T01:05:08.360Z,17.38
2023-05-01T01:15:15.372Z,17.40
2023-05-01T01:25:23.538Z,17.40
2023-05-01T01:35:29.893Z,17.42
2023-05-01T01:45:36.998Z,17.52
2023-05-01T01:55:43.126Z,17.52
2023-05-01T02:05:49.462Z,17.54
2023-05-01T02:15:54.924Z,17.50
2023-05-01T02:26:01.189Z,17.50
2023-05-01T02:36:07.377Z,17.46
2023-05-01T02:46:13.668Z,17.45
2023-05-01T02:56:19.455Z,17.45
2023-05-01T03:06:25.297Z,17.46
2023-05-01T03:16:31.393Z,17.45
2023-05-01T03:26:37.608Z,17.45
2023-05-01T03:36:43.733Z,17.48
2023-05-01T03:46:49.858Z,17.50
2023-05-01T03:56:56.364Z,17.50
2023-05-01T04:07:02.521Z,17.50
2023-05-01T04:17:08.643Z,17.52
2023-05-01T04:27:14.530Z,17.46
2023-05-01T04:37:21.042Z,17.48
2023-05-01T04:47:27.240Z,17.48
2023-05-01T04:57:32.855Z,17.52
2023-05-01T05:07:38.930Z,17.60
2023-05-01T05:17:45.353Z,17.64
2023-05-01T05:27:51.883Z,17.68
2023-05-01T05:37:58.245Z,17.73
2023-05-01T05:48:04.498Z,17.73
2023-05-01T05:58:10.795Z,17.76
2023-05-01T06:08:16.827Z,17.92
2023-05-01T06:18:22.827Z,18.02
2023-05-01T06:28:28.883Z,18.09
2023-05-01T06:38:30.320Z,18.17
2023-05-01T06:48:37.619Z,11.83
2023-05-01T06:58:43.867Z,13.70
2023-05-01T07:08:49.421Z,13.30
2023-05-01T07:18:56.818Z,15.09
2023-05-01T07:29:05.730Z,15.76
2023-05-01T07:39:12.142Z,16.41
2023-05-01T07:49:18.672Z,16.41
2023-05-01T07:59:25.780Z,16.89
2023-05-01T08:09:32.678Z,16.89
2023-05-01T08:19:39.322Z,17.05
2023-05-01T08:29:46.172Z,17.28
2023-05-01T08:39:53.597Z,17.48
2023-05-01T08:50:00.334Z,17.48
2023-05-01T09:00:06.961Z,17.72
2023-05-01T09:10:13.387Z,17.72
2023-05-01T09:20:19.954Z,17.91
2023-05-01T09:30:26.334Z,17.99
2023-05-01T09:40:33.171Z,17.99
2023-05-01T09:50:39.238Z,17.99
2023-05-01T10:00:45.908Z,17.94
2023-05-01T10:10:52.792Z,17.92
2023-05-01T10:20:59.604Z,17.95
2023-05-01T10:31:05.821Z,17.95
2023-05-01T10:41:12.151Z,18.00
2023-05-01T10:51:18.772Z,18.00
2023-05-01T11:01:25.496Z,18.00
2023-05-01T11:11:31.938Z,18.00
2023-05-01T11:21:38.340Z,17.96
2023-05-01T11:31:44.986Z,17.94
2023-05-01T11:41:51.446Z,17.94
2023-05-01T11:51:58.452Z,17.94
2023-05-01T12:02:04.894Z,17.92
2023-05-01T12:12:11.860Z,17.92
2023-05-01T12:22:18.587Z,17.91
2023-05-01T12:32:25.119Z,17.91
2023-05-01T12:42:31.946Z,17.91
2023-05-01T12:52:38.561Z,17.90
2023-05-01T13:02:45.495Z,17.91
2023-05-01T13:12:52.052Z,17.90
2023-05-01T13:22:58.855Z,17.91
2023-05-01T13:33:05.629Z,17.91
2023-05-01T13:43:12.417Z,17.90
2023-05-01T13:53:19.098Z,17.90
2023-05-01T14:03:26.371Z,17.90
2023-05-01T14:13:32.715Z,17.88
2023-05-01T14:23:39.214Z,17.88
2023-05-01T14:33:45.881Z,17.88
2023-05-01T14:43:52.494Z,17.88
2023-05-01T14:53:58.979Z,17.88
2023-05-01T15:04:05.243Z,17.88
2023-05-01T15:14:11.585Z,17.85
2023-05-01T15:24:18.010Z,17.85
2023-05-01T15:34:24.534Z,17.81
2023-05-01T15:44:31.099Z,17.81
2023-05-01T15:54:37.308Z,17.82
2023-05-01T16:04:43.061Z,17.81
2023-05-01T16:14:49.239Z,17.80
2023-05-01T16:24:55.708Z,17.81
2023-05-01T16:35:02.348Z,17.81
2023-05-01T16:45:08.990Z,17.81
2023-05-01T16:55:15.948Z,17.81
2023-05-01T17:05:22.547Z,17.78
2023-05-01T17:15:29.132Z,17.76
2023-05-01T17:25:35.779Z,17.76
2023-05-01T17:35:42.097Z,17.75
2023-05-01T17:45:48.336Z,17.76
2023-05-01T17:55:54.950Z,17.73
2023-05-01T18:06:01.226Z,17.73
2023-05-01T18:16:08.349Z,17.73
2023-05-01T18:26:15.604Z,17.75
2023-05-01T18:36:22.865Z,17.52
2023-05-01T18:46:30.241Z,17.33
2023-05-01T18:56:37.798Z,17.27
2023-05-01T19:06:44.952Z,17.44
2023-05-01T19:16:51.928Z,17.54
2023-05-01T19:27:00.295Z,17.54
2023-05-01T19:37:07.877Z,17.56
2023-05-01T19:47:15.174Z,17.56
2023-05-01T19:57:22.303Z,17.62
2023-05-01T20:07:29.088Z,17.60
2023-05-01T20:17:37.762Z,17.66
2023-05-01T20:27:44.919Z,17.66
2023-05-01T20:37:52.019Z,17.73
2023-05-01T20:47:59.016Z,17.76
2023-05-01T20:58:06.391Z,17.84
2023-05-01T21:08:13.513Z,17.84
2023-05-01T21:18:20.897Z,17.88
2023-05-01T21:28:27.984Z,17.88
2023-05-01T21:38:35.582Z,17.94
2023-05-01T21:48:42.848Z,17.94
2023-05-01T22:00:09.077Z,17.96
2023-05-01T22:10:17.864Z,18.02
2023-05-01T22:20:25.545Z,18.00
2023-05-01T22:30:32.982Z,18.02
2023-05-01T22:40:40.641Z,18.02
2023-05-01T22:50:47.888Z,18.04
2023-05-01T23:00:54.902Z,18.07
2023-05-01T23:11:02.169Z,18.07
2023-05-01T23:21:09.675Z,18.07
2023-05-01T23:31:16.992Z,18.07
2023-05-01T23:41:23.082Z,18.05
2023-05-01T23:51:29.084Z,18.07
